Time;durP1;ratioP1;P1;durP2;ratioP2;P2;SDS_P1;SDS_P2;PMS_P1;PMS_P2;Temp;Humidity;BMP_temperature;BMP_pressure;BME280_temperature;BME280_humidity;BME280_pressure;Samples;Min_cycle;Max_cycle;Signal;HPM_P1;HPM_P2
2022/05/02 00:00:46;;;;;;;17.33;8.60;;;6.90;99.90;;;;;;5122059;27;20267;-69
2022/05/02 00:03:13;;;;;;;11.57;6.77;;;6.90;99.90;;;;;;5123998;27;20185;-70
2022/05/02 00:05:39;;;;;;;15.20;7.40;;;6.90;99.90;;;;;;5114637;27;20469;-70
2022/05/02 00:08:05;;;;;;;16.47;8.30;;;6.90;99.90;;;;;;5117727;27;20432;-70
2022/05/02 00:10:31;;;;;;;13.13;6.63;;;6.80;99.90;;;;;;5113332;27;20495;-70
2022/05/02 00:12:58;;;;;;;12.13;6.60;;;6.70;99.90;;;;;;5126748;27;20415;-69
2022/05/02 00:15:24;;;;;;;14.13;7.27;;;6.60;99.90;;;;;;5124918;27;20428;-69
2022/05/02 00:17:59;;;;;;;12.87;6.00;;;6.60;99.90;;;;;;5128621;27;20412;-69
2022/05/02 00:20:35;;;;;;;17.43;8.23;;;6.50;99.90;;;;;;5127422;27;20608;-70
2022/05/02 00:23:04;;;;;;;14.40;8.03;;;6.50;99.90;;;;;;5127734;27;20428;-70
2022/05/02 00:25:30;;;;;;;15.67;7.07;;;6.50;99.90;;;;;;5125456;27;20495;-70
2022/05/02 00:27:57;;;;;;;15.40;8.50;;;6.50;99.90;;;;;;5127053;27;20438;-70
2022/05/02 00:30:22;;;;;;;15.43;7.07;;;6.50;99.90;;;;;;5125768;27;20412;-70
2022/05/02 00:32:48;;;;;;;18.50;8.80;;;6.50;99.90;;;;;;5125862;27;20409;-70
2022/05/02 00:35:14;;;;;;;14.63;8.10;;;6.50;99.90;;;;;;5116934;27;20208;-69
2022/05/02 00:37:41;;;;;;;12.23;6.67;;;6.40;99.90;;;;;;5118247;27;20192;-69
2022/05/02 00:40:09;;;;;;;18.93;6.93;;;6.50;99.90;;;;;;5121129;27;20746;-69
2022/05/02 00:42:35;;;;;;;11.50;6.30;;;6.40;99.90;;;;;;5123034;27;20557;-69
2022/05/02 00:45:01;;;;;;;14.27;6.27;;;6.40;99.90;;;;;;5123621;27;20453;-69
2022/05/02 00:47:27;;;;;;;22.20;7.57;;;6.40;99.90;;;;;;5123719;27;20420;-70
2022/05/02 00:49:53;;;;;;;11.97;7.43;;;6.40;99.90;;;;;;5119284;27;20262;-69
2022/05/02 00:52:19;;;;;;;16.90;7.90;;;6.30;99.90;;;;;;5122040;27;20503;-69
2022/05/02 00:54:46;;;;;;;10.40;7.10;;;6.30;99.90;;;;;;5117330;27;20422;-69
2022/05/02 00:57:13;;;;;;;17.57;8.20;;;6.30;99.90;;;;;;5117453;27;20420;-69
2022/05/02 00:59:40;;;;;;;12.77;7.40;;;6.30;99.90;;;;;;5118639;27;21329;-69
2022/05/02 01:02:07;;;;;;;14.47;7.73;;;6.30;99.90;;;;;;5127649;27;20417;-70
2022/05/02 01:04:34;;;;;;;15.50;7.60;;;6.20;99.90;;;;;;5125587;27;20927;-69
2022/05/02 01:07:10;;;;;;;13.20;7.87;;;6.20;99.90;;;;;;5125466;27;20464;-69
2022/05/02 01:09:44;;;;;;;14.47;7.13;;;6.20;99.90;;;;;;5112387;27;20444;-69
2022/05/02 01:12:14;;;;;;;14.30;7.40;;;6.20;99.90;;;;;;5125740;27;20798;-70
2022/05/02 01:14:40;;;;;;;16.53;8.77;;;6.20;99.90;;;;;;5126829;27;20423;-69
2022/05/02 01:17:07;;;;;;;12.20;6.83;;;6.10;99.90;;;;;;5105975;28;20446;-69
2022/05/02 01:19:33;;;;;;;17.37;8.33;;;6.10;99.90;;;;;;5126382;27;20485;-69
2022/05/02 01:21:59;;;;;;;12.83;7.00;;;6.10;99.90;;;;;;5109870;27;20760;-71
2022/05/02 01:24:33;;;;;;;17.23;8.03;;;6.00;99.90;;;;;;5094260;27;20461;-71
2022/05/02 01:26:59;;;;;;;12.60;7.10;;;5.90;99.90;;;;;;5116138;27;20567;-71
2022/05/02 01:29:24;;;;;;;13.83;8.00;;;5.90;99.90;;;;;;5124899;27;20499;-70
2022/05/02 01:31:52;;;;;;;17.20;9.57;;;5.90;99.90;;;;;;5123658;27;20434;-69
2022/05/02 01:34:18;;;;;;;17.23;8.00;;;5.80;99.90;;;;;;5124357;27;20183;-69
2022/05/02 01:36:44;;;;;;;14.93;8.57;;;5.80;99.90;;;;;;5118404;27;20428;-69
2022/05/02 01:39:10;;;;;;;17.00;7.93;;;5.70;99.90;;;;;;5125351;27;20194;-69
2022/05/02 01:41:35;;;;;;;17.40;8.10;;;5.60;99.90;;;;;;5119647;27;20417;-71
2022/05/02 01:44:01;;;;;;;21.13;7.43;;;5.70;99.90;;;;;;5121880;27;20187;-70
2022/05/02 01:46:26;;;;;;;18.63;9.10;;;5.70;99.90;;;;;;5110718;27;20728;-70
2022/05/02 01:48:52;;;;;;;14.57;7.47;;;5.70;99.90;;;;;;5117735;27;20171;-70
2022/05/02 01:51:18;;;;;;;18.13;8.40;;;5.70;99.90;;;;;;5116887;27;20191;-70
2022/05/02 01:53:43;;;;;;;13.93;7.70;;;5.70;99.90;;;;;;5115459;28;20186;-69
2022/05/02 01:56:09;;;;;;;18.20;7.83;;;5.60;99.90;;;;;;5128018;27;20186;-69
2022/05/02 01:58:35;;;;;;;17.90;8.53;;;5.70;99.90;;;;;;5127970;28;20387;-70
2022/05/02 02:01:00;;;;;;;15.03;8.60;;;5.60;99.90;;;;;;5126389;28;20270;-69
2022/05/02 02:03:26;;;;;;;14.27;7.37;;;5.60;99.90;;;;;;5127116;28;20267;-69
2022/05/02 02:05:52;;;;;;;14.27;7.30;;;5.60;99.90;;;;;;5124570;28;20271;-69
2022/05/02 02:08:24;;;;;;;14.80;7.23;;;5.50;99.90;;;;;;5123353;28;20294;-69
2022/05/02 02:10:53;;;;;;;12.20;7.00;;;5.50;99.90;;;;;;5118655;28;20346;-69
2022/05/02 02:13:19;;;;;;;17.43;8.33;;;5.50;99.90;;;;;;5120452;28;20416;-69
2022/05/02 02:15:46;;;;;;;12.20;6.60;;;5.50;99.90;;;;;;5122740;28;20434;-70
2022/05/02 02:18:12;;;;;;;13.97;8.47;;;5.50;99.90;;;;;;5125332;28;20819;-69
2022/05/02 02:20:38;;;;;;;18.90;8.13;;;5.50;99.90;;;;;;5121753;27;20439;-70
2022/05/02 02:23:04;;;;;;;14.83;8.13;;;5.40;99.90;;;;;;5130790;27;20793;-69
2022/05/02 02:25:31;;;;;;;16.10;7.60;;;5.40;99.90;;;;;;5125327;27;20508;-70
2022/05/02 02:27:58;;;;;;;14.13;7.43;;;5.40;99.90;;;;;;5128433;27;20448;-70
2022/05/02 02:30:24;;;;;;;18.43;8.67;;;5.40;99.90;;;;;;5123905;27;20482;-69
2022/05/02 02:32:49;;;;;;;18.50;7.90;;;5.30;99.90;;;;;;5127571;27;20950;-70
2022/05/02 02:35:15;;;;;;;13.10;7.27;;;5.30;99.90;;;;;;5120425;27;20180;-70
2022/05/02 02:37:40;;;;;;;12.30;7.60;;;5.30;99.90;;;;;;5118505;27;20224;-69
2022/05/02 02:40:09;;;;;;;14.30;6.70;;;5.20;99.90;;;;;;5121072;27;20252;-70
2022/05/02 02:42:36;;;;;;;14.13;7.67;;;5.20;99.90;;;;;;5125468;27;20671;-70
2022/05/02 02:45:02;;;;;;;17.57;7.90;;;5.20;99.90;;;;;;5125447;27;20437;-70
2022/05/02 02:47:29;;;;;;;21.57;9.37;;;5.20;99.90;;;;;;5119438;27;20428;-70
2022/05/02 02:49:54;;;;;;;13.70;8.70;;;5.20;99.90;;;;;;5120654;27;20420;-70
2022/05/02 02:52:20;;;;;;;13.07;7.77;;;5.20;99.90;;;;;;5131323;27;20417;-70
2022/05/02 02:54:45;;;;;;;17.03;8.60;;;5.20;99.90;;;;;;5130780;27;20186;-70
2022/05/02 02:57:11;;;;;;;16.43;7.37;;;5.10;99.90;;;;;;5124638;27;20179;-70
2022/05/02 02:59:37;;;;;;;20.17;9.30;;;5.00;99.90;;;;;;5129592;27;20179;-70
2022/05/02 03:02:05;;;;;;;15.17;7.37;;;5.00;99.90;;;;;;5129815;27;20752;-69
2022/05/02 03:07:15;;;;;;;16.63;7.37;;;5.00;99.90;;;;;;5125161;27;20424;-70
2022/05/02 03:09:41;;;;;;;14.23;7.57;;;5.00;99.90;;;;;;5112766;27;20873;-70
2022/05/02 03:12:07;;;;;;;13.17;7.07;;;5.00;99.90;;;;;;5124557;27;20298;-70
2022/05/02 03:14:33;;;;;;;11.33;7.00;;;5.00;99.90;;;;;;5128196;27;20205;-70
2022/05/02 03:16:59;;;;;;;14.30;6.93;;;5.00;99.90;;;;;;5124449;27;20891;-70
2022/05/02 03:19:24;;;;;;;16.27;8.10;;;5.00;99.90;;;;;;5123294;27;20183;-70
2022/05/02 03:21:50;;;;;;;13.67;6.60;;;5.00;99.90;;;;;;5124916;27;20188;-70
2022/05/02 03:24:15;;;;;;;13.90;7.47;;;4.90;99.90;;;;;;5113193;27;20190;-70
2022/05/02 03:26:41;;;;;;;14.77;7.83;;;5.10;99.90;;;;;;5119453;27;20251;-70
2022/05/02 03:29:07;;;;;;;10.27;6.40;;;4.90;99.90;;;;;;5125756;27;20354;-70
2022/05/02 03:31:32;;;;;;;16.80;7.50;;;4.90;99.90;;;;;;5122305;27;20207;-69
2022/05/02 03:33:58;;;;;;;16.30;7.43;;;4.90;99.90;;;;;;5124063;27;20182;-69
2022/05/02 03:36:23;;;;;;;13.97;6.77;;;4.90;99.90;;;;;;5121688;27;20339;-70
2022/05/02 03:38:49;;;;;;;13.90;7.13;;;4.80;99.90;;;;;;5121758;27;20194;-69
2022/05/02 03:41:15;;;;;;;11.80;7.13;;;4.70;99.90;;;;;;5127397;27;20940;-69
2022/05/02 03:43:42;;;;;;;15.50;7.60;;;4.70;99.90;;;;;;5118424;27;20190;-69
2022/05/02 03:46:08;;;;;;;14.87;6.90;;;4.70;99.90;;;;;;5114068;27;20230;-69
2022/05/02 03:48:33;;;;;;;10.10;6.07;;;4.60;99.90;;;;;;5125338;27;20444;-68
2022/05/02 03:50:59;;;;;;;16.13;7.00;;;4.60;99.90;;;;;;5129729;27;20690;-69
2022/05/02 03:53:25;;;;;;;13.50;7.70;;;4.60;99.90;;;;;;5129799;27;20187;-69
2022/05/02 03:55:50;;;;;;;16.37;8.30;;;4.60;99.90;;;;;;5115485;27;20191;-69
2022/05/02 03:58:16;;;;;;;13.10;7.63;;;4.70;99.90;;;;;;5128730;27;20194;-69
2022/05/02 04:00:42;;;;;;;14.10;7.27;;;4.70;99.90;;;;;;5122266;27;20187;-71
2022/05/02 04:03:07;;;;;;;14.30;8.17;;;4.70;99.90;;;;;;5120328;27;20217;-69
2022/05/02 04:05:33;;;;;;;14.90;7.70;;;4.70;99.90;;;;;;5122096;27;20215;-69
2022/05/02 04:07:59;;;;;;;13.33;9.00;;;4.70;99.90;;;;;;5125449;27;20265;-69
2022/05/02 04:10:24;;;;;;;16.23;10.03;;;4.60;99.90;;;;;;5113351;27;20188;-69
2022/05/02 04:12:50;;;;;;;17.90;8.80;;;4.60;99.90;;;;;;5122373;27;20592;-69
2022/05/02 04:15:17;;;;;;;29.47;8.00;;;4.60;99.90;;;;;;5117434;27;20187;-69
2022/05/02 04:17:43;;;;;;;19.73;8.17;;;4.60;99.90;;;;;;5103303;27;20197;-69
2022/05/02 04:20:09;;;;;;;11.60;7.37;;;4.60;99.90;;;;;;5122186;27;20451;-70
2022/05/02 04:22:37;;;;;;;14.43;8.30;;;4.50;99.90;;;;;;5125148;27;20409;-69
2022/05/02 04:25:03;;;;;;;13.47;7.90;;;4.50;99.90;;;;;;5120484;27;20474;-69
2022/05/02 04:27:29;;;;;;;13.33;8.23;;;4.60;99.90;;;;;;5109775;27;20417;-69
2022/05/02 04:29:54;;;;;;;11.63;7.20;;;4.60;99.90;;;;;;5121311;27;20424;-69
2022/05/02 04:32:20;;;;;;;14.73;7.87;;;4.60;99.90;;;;;;5118203;27;20199;-69
2022/05/02 04:34:46;;;;;;;13.13;8.23;;;4.60;99.90;;;;;;5120004;27;20183;-68
2022/05/02 04:37:12;;;;;;;11.20;6.90;;;4.60;99.90;;;;;;5117077;27;20290;-68
2022/05/02 04:39:38;;;;;;;15.17;8.63;;;4.60;99.90;;;;;;5122895;27;20539;-68
2022/05/02 04:42:04;;;;;;;12.20;7.40;;;4.60;99.90;;;;;;5119638;27;20183;-68
2022/05/02 04:44:31;;;;;;;17.77;8.30;;;4.70;99.90;;;;;;5121722;27;20266;-68
2022/05/02 04:46:56;;;;;;;13.70;7.33;;;4.70;99.90;;;;;;5116839;27;20465;-70
2022/05/02 04:49:22;;;;;;;16.63;8.43;;;4.70;99.90;;;;;;5122349;27;20424;-70
2022/05/02 04:51:48;;;;;;;13.37;7.63;;;4.70;99.90;;;;;;5115448;27;20656;-70
2022/05/02 04:54:13;;;;;;;18.40;7.40;;;4.70;99.90;;;;;;5129483;27;20518;-70
2022/05/02 04:56:39;;;;;;;19.63;8.80;;;4.80;99.90;;;;;;5128324;27;20654;-70
2022/05/02 04:59:04;;;;;;;16.93;9.10;;;4.90;99.90;;;;;;5122394;27;20214;-70
2022/05/02 05:01:31;;;;;;;18.67;9.20;;;4.90;99.90;;;;;;5127791;27;20209;-70
2022/05/02 05:03:56;;;;;;;19.87;9.43;;;5.00;99.90;;;;;;5124220;27;20207;-70
2022/05/02 05:06:22;;;;;;;18.83;8.00;;;5.00;99.90;;;;;;5117508;27;20926;-70
2022/05/02 05:08:48;;;;;;;15.70;8.97;;;5.20;99.90;;;;;;5111203;27;20176;-70
2022/05/02 05:11:35;;;;;;;19.03;9.57;;;5.30;99.90;;;;;;5123067;27;20179;-70
2022/05/02 05:17:54;;;;;;;18.23;9.67;;;5.50;99.90;;;;;;5122776;27;20512;-70
2022/05/02 05:20:25;;;;;;;20.10;10.17;;;5.50;99.90;;;;;;5026325;28;20441;-71
2022/05/02 05:23:03;;;;;;;14.77;7.70;;;5.70;99.90;;;;;;5124870;27;20888;-72
2022/05/02 05:25:57;;;;;;;17.00;8.93;;;5.80;99.90;;;;;;5105908;27;20510;-69
2022/05/02 05:28:35;;;;;;;16.83;9.60;;;5.90;99.90;;;;;;5119474;27;20889;-69
2022/05/02 05:31:15;;;;;;;17.90;10.40;;;6.10;99.90;;;;;;5126237;27;20451;-72
2022/05/02 05:33:50;;;;;;;18.50;10.37;;;6.20;99.90;;;;;;5127446;27;20903;-69
2022/05/02 05:36:32;;;;;;;21.90;10.70;;;6.30;99.90;;;;;;5121481;27;20413;-68
2022/05/02 05:39:02;;;;;;;30.63;11.20;;;6.50;99.90;;;;;;5127315;27;20424;-68
2022/05/02 05:42:02;;;;;;;22.27;10.97;;;6.60;99.90;;;;;;5126208;27;20422;-68
2022/05/02 05:44:56;;;;;;;20.87;10.87;;;6.70;99.90;;;;;;5125630;27;20503;-70
2022/05/02 05:47:22;;;;;;;21.40;11.00;;;6.90;99.90;;;;;;5125510;27;20916;-70
2022/05/02 05:50:00;;;;;;;26.03;12.40;;;7.00;99.90;;;;;;5106741;27;20417;-70
2022/05/02 05:52:45;;;;;;;25.83;12.10;;;7.00;99.90;;;;;;5104575;28;20294;-70
2022/05/02 05:55:22;;;;;;;17.47;10.90;;;7.10;99.90;;;;;;5101830;28;20741;-70
2022/05/02 05:58:19;;;;;;;22.80;12.67;;;7.10;99.90;;;;;;5117088;27;20413;-70
2022/05/02 06:00:45;;;;;;;22.30;11.60;;;7.20;99.90;;;;;;5121297;28;20432;-70
2022/05/02 06:03:14;;;;;;;23.17;12.77;;;7.30;99.90;;;;;;5122644;28;21098;-70
2022/05/02 06:05:45;;;;;;;23.80;13.23;;;7.30;99.90;;;;;;5120944;28;20515;-68
2022/05/02 06:08:16;;;;;;;23.10;11.40;;;7.40;99.90;;;;;;5097786;28;20441;-69
2022/05/02 06:10:43;;;;;;;26.23;12.37;;;7.50;99.90;;;;;;5117466;28;20940;-70
2022/05/02 06:13:09;;;;;;;24.83;13.00;;;7.60;99.90;;;;;;5121463;28;20460;-69
2022/05/02 06:18:29;;;;;;;26.07;11.77;;;7.80;99.90;;;;;;5120678;28;20404;-68
2022/05/02 06:20:58;;;;;;;23.83;11.97;;;8.00;99.90;;;;;;5117064;28;20437;-69
2022/05/02 06:23:26;;;;;;;21.03;12.23;;;8.00;99.90;;;;;;5120366;28;20429;-69
2022/05/02 06:25:53;;;;;;;22.20;11.77;;;8.20;99.90;;;;;;5098437;28;20489;-70
2022/05/02 06:28:23;;;;;;;21.93;11.03;;;8.30;99.90;;;;;;5119223;28;20556;-71
2022/05/02 06:30:51;;;;;;;17.23;9.13;;;8.40;99.90;;;;;;5123164;28;20464;-68
2022/05/02 06:33:20;;;;;;;20.63;9.67;;;8.50;99.90;;;;;;5111549;28;20421;-69
2022/05/02 06:35:58;;;;;;;21.63;11.30;;;8.70;99.90;;;;;;5100335;28;20418;-69
2022/05/02 06:38:38;;;;;;;22.33;11.00;;;8.90;99.90;;;;;;5111112;28;20428;-70
2022/05/02 06:41:30;;;;;;;20.77;10.80;;;9.00;99.90;;;;;;5126929;28;20420;-69
2022/05/02 06:44:16;;;;;;;16.90;10.20;;;9.20;99.90;;;;;;5111257;28;20435;-70
2022/05/02 06:47:01;;;;;;;22.50;11.70;;;9.40;99.90;;;;;;5118957;28;20464;-70
2022/05/02 06:49:30;;;;;;;20.13;9.70;;;9.60;99.90;;;;;;5124244;28;21198;-70
2022/05/02 06:51:58;;;;;;;19.90;10.47;;;9.70;99.90;;;;;;5125749;28;20759;-70
2022/05/02 06:54:51;;;;;;;18.17;10.27;;;10.00;99.90;;;;;;5123363;28;20500;-70
2022/05/02 06:57:34;;;;;;;17.47;9.80;;;10.30;99.90;;;;;;5125160;28;20416;-70
2022/05/02 07:00:10;;;;;;;18.20;9.30;;;10.70;99.90;;;;;;5122198;28;20424;-70
2022/05/02 07:02:57;;;;;;;20.77;9.70;;;11.00;99.90;;;;;;5121448;28;20516;-70
2022/05/02 07:05:54;;;;;;;17.53;9.97;;;11.30;99.90;;;;;;5114675;27;20491;-70
2022/05/02 07:08:27;;;;;;;25.57;10.50;;;11.50;99.90;;;;;;5121424;27;20482;-70
2022/05/02 07:11:01;;;;;;;19.13;8.60;;;11.90;99.90;;;;;;5116375;27;20937;-70
2022/05/02 07:13:45;;;;;;;14.87;8.63;;;12.20;99.90;;;;;;5123598;27;20425;-71
2022/05/02 07:16:25;;;;;;;14.20;8.40;;;12.70;99.90;;;;;;5130350;27;20440;-71
2022/05/02 07:19:37;;;;;;;16.27;8.03;;;13.20;99.90;;;;;;5108094;27;20914;-70
2022/05/02 07:22:07;;;;;;;12.67;7.90;;;13.60;99.90;;;;;;5025436;28;20468;-70
2022/05/02 07:24:41;;;;;;;22.40;9.70;;;13.70;99.90;;;;;;5020634;28;20457;-71
2022/05/02 07:27:16;;;;;;;29.63;9.60;;;14.10;99.30;;;;;;5071974;27;20475;-70
2022/05/02 07:29:44;;;;;;;15.60;7.90;;;14.60;98.60;;;;;;5122325;27;20463;-70
2022/05/02 07:32:11;;;;;;;16.63;8.40;;;14.90;97.80;;;;;;5127945;27;20942;-69
2022/05/02 07:34:38;;;;;;;14.60;7.10;;;15.80;97.10;;;;;;5122988;27;20892;-70
2022/05/02 07:37:05;;;;;;;11.43;6.97;;;16.90;94.70;;;;;;5097103;27;20519;-70
2022/05/02 07:39:34;;;;;;;17.40;7.67;;;18.10;92.60;;;;;;5126677;27;20451;-70
2022/05/02 07:42:04;;;;;;;24.13;7.97;;;19.30;88.20;;;;;;5127515;27;20428;-70
2022/05/02 07:44:33;;;;;;;14.37;7.50;;;19.60;86.50;;;;;;5125746;27;20428;-69
2022/05/02 07:47:02;;;;;;;14.17;7.63;;;20.00;85.50;;;;;;5126908;27;20498;-70
2022/05/02 07:49:30;;;;;;;10.30;7.20;;;20.00;84.80;;;;;;5122377;27;20427;-69
2022/05/02 07:52:00;;;;;;;11.77;7.30;;;20.00;83.90;;;;;;5126359;27;20466;-70
2022/05/02 07:54:28;;;;;;;14.20;7.97;;;20.10;84.70;;;;;;5121253;27;20425;-69
2022/05/02 07:57:00;;;;;;;13.73;7.27;;;19.30;83.80;;;;;;5125434;27;20435;-69
2022/05/02 07:59:33;;;;;;;10.13;6.27;;;19.00;86.80;;;;;;5118015;27;20432;-70
2022/05/02 08:01:59;;;;;;;14.80;7.43;;;19.50;84.60;;;;;;5125245;27;20416;-69
2022/05/02 08:04:25;;;;;;;13.70;8.20;;;20.50;82.20;;;;;;5119431;27;20420;-70
2022/05/02 08:07:02;;;;;;;14.47;6.80;;;20.30;82.20;;;;;;5114546;27;20685;-70
2022/05/02 08:09:31;;;;;;;14.40;6.97;;;20.70;80.40;;;;;;5113033;27;20175;-69
2022/05/02 08:12:10;;;;;;;10.50;6.57;;;20.40;79.50;;;;;;5123905;27;20449;-70
2022/05/02 08:15:12;;;;;;;12.20;6.87;;;20.80;80.10;;;;;;5124712;27;20522;-70
2022/05/02 08:17:43;;;;;;;12.10;6.60;;;20.30;79.10;;;;;;5107827;27;20424;-70
2022/05/02 08:20:46;;;;;;;14.17;6.87;;;20.00;80.30;;;;;;5127389;27;20408;-70
2022/05/02 08:29:13;;;;;;;13.13;6.63;;;19.80;80.00;;;;;;5116041;27;20484;-70
2022/05/02 08:32:10;;;;;;;12.23;6.80;;;20.90;75.90;;;;;;5123262;27;20436;-70
2022/05/02 08:34:44;;;;;;;12.70;6.30;;;21.50;73.80;;;;;;5128241;27;20526;-69
2022/05/02 08:37:27;;;;;;;12.37;6.27;;;21.20;74.50;;;;;;5115899;27;20412;-70
2022/05/02 08:40:05;;;;;;;15.43;6.83;;;21.20;72.80;;;;;;5121155;27;20424;-69
2022/05/02 08:42:41;;;;;;;9.07;6.30;;;19.80;77.10;;;;;;5126178;27;20512;-70
2022/05/02 08:45:44;;;;;;;17.03;7.03;;;19.60;76.80;;;;;;5124872;27;20472;-70
2022/05/02 08:48:34;;;;;;;12.83;6.80;;;19.60;77.20;;;;;;5123843;27;20416;-69
2022/05/02 08:51:36;;;;;;;13.73;7.10;;;18.00;81.80;;;;;;5124607;27;20451;-69
2022/05/02 08:54:32;;;;;;;12.40;6.50;;;18.10;83.20;;;;;;5115780;27;20891;-69
2022/05/02 08:56:58;;;;;;;10.07;6.23;;;17.50;83.20;;;;;;5117553;27;20428;-68
2022/05/02 08:59:46;;;;;;;10.80;5.63;;;17.00;85.50;;;;;;5122501;27;20417;-69
2022/05/02 09:02:50;;;;;;;12.00;6.00;;;17.50;83.60;;;;;;5124064;27;20208;-69
2022/05/02 09:05:34;;;;;;;9.07;5.10;;;18.00;83.40;;;;;;5040699;28;20516;-69
2022/05/02 09:08:37;;;;;;;7.13;4.50;;;18.90;79.80;;;;;;5108523;27;20440;-69
2022/05/02 09:11:31;;;;;;;9.37;4.47;;;19.90;77.70;;;;;;5113424;27;20503;-69
2022/05/02 09:14:24;;;;;;;9.13;5.23;;;19.70;76.50;;;;;;5118432;27;20426;-70
2022/05/02 09:17:07;;;;;;;6.83;4.80;;;19.50;76.40;;;;;;5111900;27;20465;-69
2022/05/02 09:19:58;;;;;;;7.70;3.80;;;20.00;76.50;;;;;;5128084;27;20420;-69
2022/05/02 09:22:32;;;;;;;9.03;4.73;;;20.20;73.50;;;;;;5126594;27;20506;-70
2022/05/02 09:25:08;;;;;;;8.33;3.97;;;19.70;75.10;;;;;;5114276;27;20457;-70
2022/05/02 09:27:54;;;;;;;5.67;3.50;;;20.00;74.00;;;;;;5111675;27;20452;-70
2022/05/02 09:30:41;;;;;;;9.20;4.70;;;20.30;74.70;;;;;;5124861;27;20785;-69
2022/05/02 09:33:28;;;;;;;6.03;3.90;;;20.80;72.00;;;;;;5115687;27;20887;-69
2022/05/02 09:36:09;;;;;;;12.00;5.63;;;19.70;72.40;;;;;;5121190;27;20412;-69
2022/05/02 09:38:56;;;;;;;7.13;4.47;;;19.10;74.40;;;;;;5120189;27;20416;-69
2022/05/02 09:41:36;;;;;;;7.90;3.93;;;18.60;75.60;;;;;;5122542;27;20443;-69
2022/05/02 09:50:09;;;;;;;10.60;4.30;;;18.00;78.10;;;;;;5119538;27;20933;-69
2022/05/02 09:52:46;;;;;;;7.37;4.27;;;18.20;77.30;;;;;;5120896;27;20556;-69
2022/05/02 09:58:42;;;;;;;7.73;3.33;;;18.10;76.60;;;;;;5116294;27;20407;-69
2022/05/02 10:01:27;;;;;;;7.50;3.80;;;18.60;75.40;;;;;;5115623;28;20936;-69
2022/05/02 10:04:01;;;;;;;7.00;4.20;;;19.00;74.00;;;;;;5113498;28;20972;-69
2022/05/02 10:06:50;;;;;;;7.30;4.00;;;18.70;76.30;;;;;;5117739;28;21078;-69
2022/05/02 10:09:37;;;;;;;7.30;4.13;;;18.80;78.00;;;;;;5089192;28;20429;-69
2022/05/02 10:12:03;;;;;;;8.70;4.10;;;17.90;79.40;;;;;;5105244;28;20410;-69
2022/05/02 10:15:21;;;;;;;8.00;4.03;;;17.80;77.50;;;;;;5106580;28;20424;-69
2022/05/02 10:17:53;;;;;;;8.70;4.30;;;17.50;78.50;;;;;;5044300;28;20432;-69
2022/05/02 10:20:21;;;;;;;6.10;3.40;;;17.70;79.80;;;;;;5060431;28;20966;-70
2022/05/02 10:23:07;;;;;;;9.77;4.90;;;17.80;79.60;;;;;;5089249;28;20524;-70
2022/05/02 10:25:43;;;;;;;12.33;5.30;;;17.70;78.10;;;;;;5119131;28;20460;-70
2022/05/02 10:28:58;;;;;;;7.93;4.77;;;17.80;82.30;;;;;;5123492;28;20461;-70
2022/05/02 10:31:25;;;;;;;8.73;4.10;;;17.70;79.70;;;;;;5113895;28;20447;-70
2022/05/02 10:33:53;;;;;;;8.67;4.43;;;17.60;81.10;;;;;;5122540;28;20412;-70
2022/05/02 10:36:37;;;;;;;13.10;5.10;;;17.90;80.80;;;;;;5122269;28;20816;-70
2022/05/02 10:39:38;;;;;;;7.43;4.90;;;17.70;77.50;;;;;;5108037;28;20424;-71
2022/05/02 10:42:06;;;;;;;10.67;4.70;;;17.70;79.50;;;;;;5112444;27;20424;-70
2022/05/02 10:44:56;;;;;;;9.10;4.40;;;17.70;79.30;;;;;;5127485;27;20413;-70
2022/05/02 10:47:26;;;;;;;8.20;4.57;;;17.20;80.40;;;;;;5114154;27;20475;-70
2022/05/02 10:50:16;;;;;;;9.47;4.60;;;17.30;80.50;;;;;;5120523;27;20421;-70
2022/05/02 10:53:07;;;;;;;8.57;4.60;;;17.20;80.20;;;;;;5119300;27;20773;-70
2022/05/02 10:55:37;;;;;;;8.40;4.73;;;17.40;80.60;;;;;;5107712;27;20455;-70
2022/05/02 10:58:11;;;;;;;9.33;5.20;;;17.70;79.80;;;;;;5117985;27;20420;-70
2022/05/02 11:01:09;;;;;;;10.70;4.17;;;18.00;78.50;;;;;;5124603;27;20448;-71
2022/05/02 11:03:54;;;;;;;6.93;4.27;;;18.00;79.00;;;;;;5130713;27;20426;-71
2022/05/02 11:06:45;;;;;;;9.80;4.47;;;18.00;78.60;;;;;;5118153;27;20491;-70
2022/05/02 11:09:19;;;;;;;8.67;4.07;;;18.20;77.50;;;;;;5113812;27;20503;-70
2022/05/02 11:11:50;;;;;;;7.30;3.53;;;17.70;78.10;;;;;;5117581;27;20455;-70
2022/05/02 11:14:54;;;;;;;9.53;3.23;;;17.70;78.30;;;;;;5115090;27;20433;-71
2022/05/02 11:17:30;;;;;;;6.17;3.53;;;18.00;77.30;;;;;;5117677;27;20424;-71
2022/05/02 11:22:54;;;;;;;7.03;3.20;;;18.40;77.00;;;;;;5119337;27;20428;-70
2022/05/02 11:25:21;;;;;;;8.57;3.40;;;19.00;75.20;;;;;;5116257;27;20425;-70
2022/05/02 11:28:11;;;;;;;6.90;3.47;;;19.30;73.90;;;;;;5111795;27;20429;-71
2022/05/02 11:30:46;;;;;;;6.17;3.47;;;19.70;74.10;;;;;;5123274;27;20482;-71
2022/05/02 11:33:38;;;;;;;5.60;3.40;;;19.40;76.90;;;;;;5126173;27;20903;-71
2022/05/02 11:36:09;;;;;;;7.30;3.83;;;19.00;72.50;;;;;;5118423;27;21082;-71
2022/05/02 11:38:43;;;;;;;8.00;3.40;;;18.50;75.40;;;;;;5102768;28;20464;-71
2022/05/02 11:41:18;;;;;;;5.60;2.67;;;18.80;74.40;;;;;;5119674;27;20952;-71
2022/05/02 11:43:46;;;;;;;4.07;2.43;;;19.10;74.00;;;;;;5115742;27;20451;-70
2022/05/02 11:46:18;;;;;;;6.10;3.10;;;19.30;74.80;;;;;;5114945;27;20460;-70
2022/05/02 11:49:05;;;;;;;5.30;2.90;;;19.30;74.80;;;;;;5117740;27;21131;-72
2022/05/02 11:51:37;;;;;;;5.60;2.83;;;18.90;72.80;;;;;;5118079;27;20607;-71
2022/05/02 11:54:12;;;;;;;5.07;2.03;;;18.70;75.10;;;;;;5114584;27;20432;-70
2022/05/02 11:56:45;;;;;;;6.97;2.77;;;18.30;75.20;;;;;;5116161;27;20532;-71
2022/05/02 11:59:15;;;;;;;6.90;2.57;;;18.20;75.40;;;;;;5117812;27;20429;-71
2022/05/02 12:01:45;;;;;;;5.80;3.00;;;17.90;74.90;;;;;;5113905;27;20409;-71
2022/05/02 12:04:17;;;;;;;5.97;3.17;;;18.10;78.20;;;;;;5126798;27;20442;-72
2022/05/02 12:07:10;;;;;;;6.80;3.47;;;18.60;75.70;;;;;;5121074;27;21008;-71
2022/05/02 12:09:38;;;;;;;9.70;3.07;;;18.90;72.80;;;;;;5119154;27;20421;-71
2022/05/02 12:12:07;;;;;;;6.07;3.00;;;19.00;70.80;;;;;;5122415;27;20540;-71
2022/05/02 12:14:33;;;;;;;8.40;3.10;;;19.10;72.00;;;;;;5117265;27;20494;-70
2022/05/02 12:17:10;;;;;;;6.50;3.27;;;19.30;69.50;;;;;;5112270;27;20233;-70
2022/05/02 12:19:39;;;;;;;3.90;2.60;;;19.10;72.60;;;;;;5109940;27;20512;-69
2022/05/02 12:22:28;;;;;;;4.90;3.03;;;18.90;72.20;;;;;;5111901;27;20736;-71
2022/05/02 12:25:03;;;;;;;7.00;3.67;;;18.60;72.40;;;;;;5101087;27;20442;-70
2022/05/02 12:27:31;;;;;;;4.77;3.13;;;18.50;71.30;;;;;;5117545;27;20460;-70
2022/05/02 12:30:00;;;;;;;4.80;2.90;;;18.10;73.90;;;;;;5109160;27;20436;-70
2022/05/02 12:32:30;;;;;;;4.33;2.87;;;18.00;73.90;;;;;;5111464;27;21090;-70
2022/05/02 12:34:57;;;;;;;10.40;3.10;;;18.10;75.80;;;;;;5108887;27;20937;-70
2022/05/02 12:37:35;;;;;;;4.73;2.40;;;18.20;74.40;;;;;;5117499;27;20489;-70
2022/05/02 12:40:11;;;;;;;4.70;2.80;;;18.10;73.20;;;;;;5101904;27;20443;-70
2022/05/02 12:42:49;;;;;;;18.00;3.07;;;18.00;73.20;;;;;;5109930;27;20448;-70
2022/05/02 12:45:20;;;;;;;6.20;3.00;;;18.10;73.90;;;;;;5112099;27;20947;-70
2022/05/02 12:47:52;;;;;;;7.93;2.80;;;18.20;72.70;;;;;;5113629;27;20429;-70
2022/05/02 12:50:25;;;;;;;3.70;2.13;;;18.00;74.60;;;;;;5120997;27;20766;-71
2022/05/02 12:52:54;;;;;;;6.07;3.00;;;18.10;74.60;;;;;;5130644;27;20429;-70
2022/05/02 12:55:21;;;;;;;7.10;3.43;;;18.10;74.90;;;;;;5124799;27;20412;-70
2022/05/02 13:00:36;;;;;;;5.17;3.13;;;18.40;74.20;;;;;;5113042;27;20444;-69
2022/05/02 13:03:11;;;;;;;4.50;2.93;;;18.40;73.30;;;;;;5102196;27;20762;-72
2022/05/02 13:05:57;;;;;;;5.53;3.40;;;18.40;73.40;;;;;;5107068;27;20525;-72
2022/05/02 13:08:31;;;;;;;7.07;3.20;;;18.50;72.20;;;;;;5096805;27;20469;-72
2022/05/02 13:11:04;;;;;;;9.03;2.70;;;18.90;70.00;;;;;;5091106;27;20470;-73
2022/05/02 13:13:53;;;;;;;10.37;3.50;;;19.00;70.60;;;;;;5107799;27;20512;-73
2022/05/02 13:16:29;;;;;;;14.10;2.50;;;19.10;70.10;;;;;;5107483;27;20438;-73
2022/05/02 13:18:58;;;;;;;3.87;2.30;;;19.80;67.90;;;;;;5105137;27;20823;-73
2022/05/02 13:21:24;;;;;;;4.90;2.93;;;19.50;69.80;;;;;;5087289;27;20800;-73
2022/05/02 13:23:59;;;;;;;4.53;2.50;;;18.90;71.50;;;;;;5094183;27;20436;-72
2022/05/02 13:26:32;;;;;;;4.20;2.47;;;18.90;72.30;;;;;;5089585;27;20203;-73
2022/05/02 13:29:16;;;;;;;6.53;2.80;;;18.90;73.40;;;;;;5105965;27;20991;-73
2022/05/02 13:31:47;;;;;;;5.47;2.10;;;19.00;71.90;;;;;;5113320;27;20972;-74
2022/05/02 13:34:32;;;;;;;6.43;2.60;;;19.00;73.10;;;;;;5099901;27;20918;-74
2022/05/02 13:37:26;;;;;;;6.13;2.43;;;19.00;72.30;;;;;;5090477;27;20429;-73
2022/05/02 13:40:08;;;;;;;8.90;3.07;;;18.80;72.30;;;;;;5107853;27;21152;-73
2022/05/02 13:42:53;;;;;;;5.03;3.40;;;18.70;74.00;;;;;;5089913;28;20445;-72
2022/05/02 13:45:41;;;;;;;6.50;2.67;;;18.60;73.00;;;;;;5106157;27;20441;-73